sensor_id;sensor_type;location;lat;lon;timestamp;temperature;humidity
75155;HTU21D;63735;44.730;37.818;2023-04-07T00:01:09;9.77;78.12
75155;HTU21D;63735;44.730;37.818;2023-04-07T00:03:37;9.79;77.99
75155;HTU21D;63735;44.730;37.818;2023-04-07T00:06:05;9.81;77.88
75155;HTU21D;63735;44.730;37.818;2023-04-07T00:08:31;9.79;77.82
75155;HTU21D;63735;44.730;37.818;2023-04-07T00:10:56;9.77;77.85
75155;HTU21D;63735;44.730;37.818;2023-04-07T00:13:23;9.78;77.74
75155;HTU21D;63735;44.730;37.818;2023-04-07T00:15:49;9.79;77.58
75155;HTU21D;63735;44.730;37.818;2023-04-07T00:18:14;9.80;77.49
75155;HTU21D;63735;44.730;37.818;2023-04-07T00:20:40;9.83;77.40
75155;HTU21D;63735;44.730;37.818;2023-04-07T00:23:06;9.83;77.34
75155;HTU21D;63735;44.730;37.818;2023-04-07T00:25:32;9.83;77.23
75155;HTU21D;63735;44.730;37.818;2023-04-07T00:27:58;9.83;77.19
75155;HTU21D;63735;44.730;37.818;2023-04-07T00:30:24;9.82;77.24
75155;HTU21D;63735;44.730;37.818;2023-04-07T00:32:50;9.80;77.24
75155;HTU21D;63735;44.730;37.818;2023-04-07T00:35:16;9.79;77.18
75155;HTU21D;63735;44.730;37.818;2023-04-07T00:37:42;9.80;77.22
75155;HTU21D;63735;44.730;37.818;2023-04-07T00:40:08;9.80;77.12
75155;HTU21D;63735;44.730;37.818;2023-04-07T00:42:34;9.79;77.11
75155;HTU21D;63735;44.730;37.818;2023-04-07T00:45:00;9.81;77.02
75155;HTU21D;63735;44.730;37.818;2023-04-07T00:47:26;9.81;76.81
75155;HTU21D;63735;44.730;37.818;2023-04-07T00:49:52;9.81;76.76
75155;HTU21D;63735;44.730;37.818;2023-04-07T00:52:18;9.80;76.70
75155;HTU21D;63735;44.730;37.818;2023-04-07T00:54:55;9.80;76.63
75155;HTU21D;63735;44.730;37.818;2023-04-07T00:57:22;9.79;76.53
75155;HTU21D;63735;44.730;37.818;2023-04-07T00:59:49;9.78;76.53
75155;HTU21D;63735;44.730;37.818;2023-04-07T01:02:21;9.76;76.58
75155;HTU21D;63735;44.730;37.818;2023-04-07T01:05:06;9.75;76.56
75155;HTU21D;63735;44.730;37.818;2023-04-07T01:10:21;9.74;76.57
75155;HTU21D;63735;44.730;37.818;2023-04-07T01:13:21;9.67;76.74
75155;HTU21D;63735;44.730;37.818;2023-04-07T01:15:51;9.65;76.82
75155;HTU21D;63735;44.730;37.818;2023-04-07T01:18:28;9.65;76.86
75155;HTU21D;63735;44.730;37.818;2023-04-07T01:21:01;9.66;76.86
75155;HTU21D;63735;44.730;37.818;2023-04-07T01:26:28;9.66;76.73
75155;HTU21D;63735;44.730;37.818;2023-04-07T01:28:56;9.68;76.66
75155;HTU21D;63735;44.730;37.818;2023-04-07T01:31:27;9.68;76.58
75155;HTU21D;63735;44.730;37.818;2023-04-07T01:33:54;9.67;76.64
75155;HTU21D;63735;44.730;37.818;2023-04-07T01:36:22;9.65;76.76
75155;HTU21D;63735;44.730;37.818;2023-04-07T01:38:49;9.64;76.92
75155;HTU21D;63735;44.730;37.818;2023-04-07T01:41:16;9.61;77.11
75155;HTU21D;63735;44.730;37.818;2023-04-07T01:43:44;9.59;77.30
75155;HTU21D;63735;44.730;37.818;2023-04-07T01:46:10;9.59;77.56
75155;HTU21D;63735;44.730;37.818;2023-04-07T01:48:36;9.55;77.61
75155;HTU21D;63735;44.730;37.818;2023-04-07T01:51:04;9.54;77.76
75155;HTU21D;63735;44.730;37.818;2023-04-07T01:53:30;9.51;78.01
75155;HTU21D;63735;44.730;37.818;2023-04-07T01:55:56;9.49;78.19
75155;HTU21D;63735;44.730;37.818;2023-04-07T01:58:22;9.47;78.36
75155;HTU21D;63735;44.730;37.818;2023-04-07T02:00:49;9.46;78.49
75155;HTU21D;63735;44.730;37.818;2023-04-07T02:03:22;9.44;78.43
75155;HTU21D;63735;44.730;37.818;2023-04-07T02:05:54;9.47;78.18
75155;HTU21D;63735;44.730;37.818;2023-04-07T02:08:27;9.50;77.89
75155;HTU21D;63735;44.730;37.818;2023-04-07T02:10:56;9.54;77.37
75155;HTU21D;63735;44.730;37.818;2023-04-07T02:13:25;9.56;77.09
75155;HTU21D;63735;44.730;37.818;2023-04-07T02:15:53;9.56;76.89
75155;HTU21D;63735;44.730;37.818;2023-04-07T02:18:21;9.55;76.67
75155;HTU21D;63735;44.730;37.818;2023-04-07T02:20:49;9.56;76.66
75155;HTU21D;63735;44.730;37.818;2023-04-07T02:23:16;9.55;76.47
75155;HTU21D;63735;44.730;37.818;2023-04-07T02:25:42;9.56;76.31
75155;HTU21D;63735;44.730;37.818;2023-04-07T02:28:08;9.56;76.24
75155;HTU21D;63735;44.730;37.818;2023-04-07T02:30:34;9.55;75.99
75155;HTU21D;63735;44.730;37.818;2023-04-07T02:33:01;9.56;75.91
75155;HTU21D;63735;44.730;37.818;2023-04-07T02:35:27;9.56;75.73
75155;HTU21D;63735;44.730;37.818;2023-04-07T02:37:53;9.59;75.63
75155;HTU21D;63735;44.730;37.818;2023-04-07T02:40:19;9.59;75.57
75155;HTU21D;63735;44.730;37.818;2023-04-07T02:42:45;9.62;75.33
75155;HTU21D;63735;44.730;37.818;2023-04-07T02:45:11;9.61;75.12
75155;HTU21D;63735;44.730;37.818;2023-04-07T02:47:38;9.60;75.01
75155;HTU21D;63735;44.730;37.818;2023-04-07T02:50:04;9.60;74.92
75155;HTU21D;63735;44.730;37.818;2023-04-07T02:52:33;9.62;74.94
75155;HTU21D;63735;44.730;37.818;2023-04-07T02:55:03;9.62;74.82
75155;HTU21D;63735;44.730;37.818;2023-04-07T02:57:29;9.60;74.83
75155;HTU21D;63735;44.730;37.818;2023-04-07T02:59:59;9.60;74.85
75155;HTU21D;63735;44.730;37.818;2023-04-07T03:02:37;9.62;74.67
75155;HTU21D;63735;44.730;37.818;2023-04-07T03:05:03;9.61;74.75
75155;HTU21D;63735;44.730;37.818;2023-04-07T03:07:29;9.59;74.80
75155;HTU21D;63735;44.730;37.818;2023-04-07T03:09:58;9.63;74.77
75155;HTU21D;63735;44.730;37.818;2023-04-07T03:12:24;9.61;74.83
75155;HTU21D;63735;44.730;37.818;2023-04-07T03:14:50;9.59;74.84
75155;HTU21D;63735;44.730;37.818;2023-04-07T03:17:16;9.61;74.94
75155;HTU21D;63735;44.730;37.818;2023-04-07T03:19:43;9.60;75.03
75155;HTU21D;63735;44.730;37.818;2023-04-07T03:22:09;9.59;75.15
75155;HTU21D;63735;44.730;37.818;2023-04-07T03:24:42;9.60;75.26
75155;HTU21D;63735;44.730;37.818;2023-04-07T03:27:08;9.57;75.39
75155;HTU21D;63735;44.730;37.818;2023-04-07T03:29:42;9.57;75.49
75155;HTU21D;63735;44.730;37.818;2023-04-07T03:32:11;9.56;75.54
75155;HTU21D;63735;44.730;37.818;2023-04-07T03:34:37;9.57;75.60
75155;HTU21D;63735;44.730;37.818;2023-04-07T03:37:03;9.59;75.65
75155;HTU21D;63735;44.730;37.818;2023-04-07T03:39:32;9.60;75.70
75155;HTU21D;63735;44.730;37.818;2023-04-07T03:42:05;9.61;75.75
75155;HTU21D;63735;44.730;37.818;2023-04-07T03:44:32;9.61;75.84
75155;HTU21D;63735;44.730;37.818;2023-04-07T03:46:59;9.62;75.83
75155;HTU21D;63735;44.730;37.818;2023-04-07T03:49:26;9.64;75.79
75155;HTU21D;63735;44.730;37.818;2023-04-07T03:51:54;9.66;75.76
75155;HTU21D;63735;44.730;37.818;2023-04-07T03:54:20;9.70;75.79
75155;HTU21D;63735;44.730;37.818;2023-04-07T03:56:46;9.72;75.79
75155;HTU21D;63735;44.730;37.818;2023-04-07T03:59:15;9.74;75.86
75155;HTU21D;63735;44.730;37.818;2023-04-07T04:01:51;9.74;76.05
75155;HTU21D;63735;44.730;37.818;2023-04-07T04:04:18;9.71;76.18
75155;HTU21D;63735;44.730;37.818;2023-04-07T04:06:43;9.70;76.35
75155;HTU21D;63735;44.730;37.818;2023-04-07T04:09:20;9.69;76.51
75155;HTU21D;63735;44.730;37.818;2023-04-07T04:11:47;9.67;76.89
75155;HTU21D;63735;44.730;37.818;2023-04-07T04:14:14;9.63;77.21
75155;HTU21D;63735;44.730;37.818;2023-04-07T04:16:46;9.62;77.42
75155;HTU21D;63735;44.730;37.818;2023-04-07T04:19:31;9.63;77.55
75155;HTU21D;63735;44.730;37.818;2023-04-07T04:22:02;9.64;77.63
75155;HTU21D;63735;44.730;37.818;2023-04-07T04:24:33;9.66;77.57
75155;HTU21D;63735;44.730;37.818;2023-04-07T04:27:01;9.68;77.53
75155;HTU21D;63735;44.730;37.818;2023-04-07T04:29:27;9.70;77.52
75155;HTU21D;63735;44.730;37.818;2023-04-07T04:31:54;9.74;77.34
75155;HTU21D;63735;44.730;37.818;2023-04-07T04:34:20;9.78;77.27
75155;HTU21D;63735;44.730;37.818;2023-04-07T04:36:48;9.80;77.27
75155;HTU21D;63735;44.730;37.818;2023-04-07T04:39:16;9.80;77.34
75155;HTU21D;63735;44.730;37.818;2023-04-07T04:41:44;9.81;77.33
75155;HTU21D;63735;44.730;37.818;2023-04-07T04:44:11;9.83;77.30
75155;HTU21D;63735;44.730;37.818;2023-04-07T04:46:39;9.85;77.34
75155;HTU21D;63735;44.730;37.818;2023-04-07T04:49:06;9.90;77.32
75155;HTU21D;63735;44.730;37.818;2023-04-07T04:51:33;9.94;77.29
75155;HTU21D;63735;44.730;37.818;2023-04-07T04:54:07;9.98;77.26
75155;HTU21D;63735;44.730;37.818;2023-04-07T04:56:33;10.04;77.32
75155;HTU21D;63735;44.730;37.818;2023-04-07T04:58:59;10.10;77.27
75155;HTU21D;63735;44.730;37.818;2023-04-07T05:01:41;10.19;77.18
75155;HTU21D;63735;44.730;37.818;2023-04-07T05:04:12;10.24;77.02
75155;HTU21D;63735;44.730;37.818;2023-04-07T05:06:45;10.31;76.86
75155;HTU21D;63735;44.730;37.818;2023-04-07T05:09:13;10.41;76.78
75155;HTU21D;63735;44.730;37.818;2023-04-07T05:11:44;10.45;76.63
75155;HTU21D;63735;44.730;37.818;2023-04-07T05:14:10;10.52;76.50
75155;HTU21D;63735;44.730;37.818;2023-04-07T05:16:41;10.62;76.39
75155;HTU21D;63735;44.730;37.818;2023-04-07T05:19:10;10.71;76.01
75155;HTU21D;63735;44.730;37.818;2023-04-07T05:21:36;10.81;75.79
75155;HTU21D;63735;44.730;37.818;2023-04-07T05:24:03;10.94;75.57
75155;HTU21D;63735;44.730;37.818;2023-04-07T05:26:31;11.07;75.29
75155;HTU21D;63735;44.730;37.818;2023-04-07T05:28:58;11.18;74.93
75155;HTU21D;63735;44.730;37.818;2023-04-07T05:31:24;11.27;74.76
75155;HTU21D;63735;44.730;37.818;2023-04-07T05:33:54;11.42;74.56
75155;HTU21D;63735;44.730;37.818;2023-04-07T05:36:23;11.52;74.20
75155;HTU21D;63735;44.730;37.818;2023-04-07T05:38:53;11.57;73.86
75155;HTU21D;63735;44.730;37.818;2023-04-07T05:41:20;11.62;73.83
75155;HTU21D;63735;44.730;37.818;2023-04-07T05:43:45;11.79;73.76
75155;HTU21D;63735;44.730;37.818;2023-04-07T05:46:13;12.01;73.57
75155;HTU21D;63735;44.730;37.818;2023-04-07T05:48:47;12.19;73.30
75155;HTU21D;63735;44.730;37.818;2023-04-07T05:51:14;12.23;73.03
75155;HTU21D;63735;44.730;37.818;2023-04-07T05:53:40;12.28;72.79
75155;HTU21D;63735;44.730;37.818;2023-04-07T05:56:06;12.27;72.28
75155;HTU21D;63735;44.730;37.818;2023-04-07T05:58:40;12.26;72.29
75155;HTU21D;63735;44.730;37.818;2023-04-07T06:01:08;12.34;72.09
75155;HTU21D;63735;44.730;37.818;2023-04-07T06:03:34;12.49;71.72
75155;HTU21D;63735;44.730;37.818;2023-04-07T06:06:09;12.77;71.46
75155;HTU21D;63735;44.730;37.818;2023-04-07T06:08:35;13.23;70.66
75155;HTU21D;63735;44.730;37.818;2023-04-07T06:11:01;13.74;69.67
75155;HTU21D;63735;44.730;37.818;2023-04-07T06:13:27;14.24;68.41
75155;HTU21D;63735;44.730;37.818;2023-04-07T06:15:54;14.53;67.68
75155;HTU21D;63735;44.730;37.818;2023-04-07T06:18:21;15.00;66.56
75155;HTU21D;63735;44.730;37.818;2023-04-07T06:20:47;15.34;65.85
75155;HTU21D;63735;44.730;37.818;2023-04-07T06:23:13;15.90;64.20
75155;HTU21D;63735;44.730;37.818;2023-04-07T06:25:39;15.86;63.81
75155;HTU21D;63735;44.730;37.818;2023-04-07T06:28:05;15.70;64.02
75155;HTU21D;63735;44.730;37.818;2023-04-07T06:30:31;15.45;63.85
75155;HTU21D;63735;44.730;37.818;2023-04-07T06:32:58;15.24;64.36
75155;HTU21D;63735;44.730;37.818;2023-04-07T06:35:30;15.16;64.77
75155;HTU21D;63735;44.730;37.818;2023-04-07T06:37:56;15.37;64.62
75155;HTU21D;63735;44.730;37.818;2023-04-07T06:40:23;15.53;64.15
75155;HTU21D;63735;44.730;37.818;2023-04-07T06:42:48;15.76;63.90
75155;HTU21D;63735;44.730;37.818;2023-04-07T06:45:22;15.95;63.65
75155;HTU21D;63735;44.730;37.818;2023-04-07T06:47:48;16.15;63.10
75155;HTU21D;63735;44.730;37.818;2023-04-07T06:50:14;16.05;63.20
75155;HTU21D;63735;44.730;37.818;2023-04-07T06:52:42;15.98;63.08
75155;HTU21D;63735;44.730;37.818;2023-04-07T06:55:08;15.83;63.15
75155;HTU21D;63735;44.730;37.818;2023-04-07T06:57:34;15.60;63.16
75155;HTU21D;63735;44.730;37.818;2023-04-07T07:00:00;15.32;63.72
75155;HTU21D;63735;44.730;37.818;2023-04-07T07:02:27;15.21;64.18
75155;HTU21D;63735;44.730;37.818;2023-04-07T07:04:54;15.17;64.24
75155;HTU21D;63735;44.730;37.818;2023-04-07T07:07:20;15.11;64.37
75155;HTU21D;63735;44.730;37.818;2023-04-07T07:09:46;15.07;64.21
75155;HTU21D;63735;44.730;37.818;2023-04-07T07:12:12;15.02;64.34
75155;HTU21D;63735;44.730;37.818;2023-04-07T07:14:39;15.10;64.19
75155;HTU21D;63735;44.730;37.818;2023-04-07T07:17:05;15.03;64.20
75155;HTU21D;63735;44.730;37.818;2023-04-07T07:19:31;14.99;64.66
75155;HTU21D;63735;44.730;37.818;2023-04-07T07:21:57;14.97;64.64
75155;HTU21D;63735;44.730;37.818;2023-04-07T07:24:23;14.95;64.96
75155;HTU21D;63735;44.730;37.818;2023-04-07T07:26:49;14.92;64.79
75155;HTU21D;63735;44.730;37.818;2023-04-07T07:29:15;14.95;64.87
75155;HTU21D;63735;44.730;37.818;2023-04-07T07:31:41;14.97;64.74
75155;HTU21D;63735;44.730;37.818;2023-04-07T07:34:07;15.08;64.61
75155;HTU21D;63735;44.730;37.818;2023-04-07T07:36:33;15.14;64.25
75155;HTU21D;63735;44.730;37.818;2023-04-07T07:38:58;15.16;64.34
75155;HTU21D;63735;44.730;37.818;2023-04-07T07:41:25;15.36;64.34
75155;HTU21D;63735;44.730;37.818;2023-04-07T07:43:51;15.44;63.80
75155;HTU21D;63735;44.730;37.818;2023-04-07T07:46:17;15.55;63.53
75155;HTU21D;63735;44.730;37.818;2023-04-07T07:48:43;15.56;63.23
75155;HTU21D;63735;44.730;37.818;2023-04-07T07:51:11;15.56;62.95
75155;HTU21D;63735;44.730;37.818;2023-04-07T07:53:37;15.68;62.74
75155;HTU21D;63735;44.730;37.818;2023-04-07T07:56:03;15.87;62.64
75155;HTU21D;63735;44.730;37.818;2023-04-07T07:58:29;16.15;61.81
75155;HTU21D;63735;44.730;37.818;2023-04-07T08:00:55;16.36;61.61
75155;HTU21D;63735;44.730;37.818;2023-04-07T08:03:21;16.75;60.69
75155;HTU21D;63735;44.730;37.818;2023-04-07T08:05:47;17.04;60.29
75155;HTU21D;63735;44.730;37.818;2023-04-07T08:08:14;17.16;59.93
75155;HTU21D;63735;44.730;37.818;2023-04-07T08:10:40;17.25;59.97
75155;HTU21D;63735;44.730;37.818;2023-04-07T08:13:06;17.36;59.64
75155;HTU21D;63735;44.730;37.818;2023-04-07T08:15:32;17.41;59.31
75155;HTU21D;63735;44.730;37.818;2023-04-07T08:17:58;17.45;58.82
75155;HTU21D;63735;44.730;37.818;2023-04-07T08:20:25;17.34;58.85
75155;HTU21D;63735;44.730;37.818;2023-04-07T08:22:51;17.19;58.74
75155;HTU21D;63735;44.730;37.818;2023-04-07T08:25:18;16.96;59.22
75155;HTU21D;63735;44.730;37.818;2023-04-07T08:27:45;16.87;59.46
75155;HTU21D;63735;44.730;37.818;2023-04-07T08:30:11;16.88;59.42
75155;HTU21D;63735;44.730;37.818;2023-04-07T08:32:40;16.85;58.95
75155;HTU21D;63735;44.730;37.818;2023-04-07T08:35:06;16.72;58.90
75155;HTU21D;63735;44.730;37.818;2023-04-07T08:37:33;16.48;59.03
75155;HTU21D;63735;44.730;37.818;2023-04-07T08:39:59;16.36;59.24
75155;HTU21D;63735;44.730;37.818;2023-04-07T08:42:30;16.37;59.45
75155;HTU21D;63735;44.730;37.818;2023-04-07T08:44:57;16.29;59.47
75155;HTU21D;63735;44.730;37.818;2023-04-07T08:47:26;16.22;59.70
75155;HTU21D;63735;44.730;37.818;2023-04-07T08:49:56;16.05;59.90
75155;HTU21D;63735;44.730;37.818;2023-04-07T08:52:30;15.92;60.14
75155;HTU21D;63735;44.730;37.818;2023-04-07T08:54:58;15.80;60.46
75155;HTU21D;63735;44.730;37.818;2023-04-07T08:57:29;15.66;60.56
75155;HTU21D;63735;44.730;37.818;2023-04-07T08:59:58;15.47;60.80
75155;HTU21D;63735;44.730;37.818;2023-04-07T09:02:29;15.26;61.03
75155;HTU21D;63735;44.730;37.818;2023-04-07T09:04:55;15.03;61.32
75155;HTU21D;63735;44.730;37.818;2023-04-07T09:07:21;14.82;61.67
75155;HTU21D;63735;44.730;37.818;2023-04-07T09:09:48;14.67;62.18
75155;HTU21D;63735;44.730;37.818;2023-04-07T09:12:13;14.60;62.41
75155;HTU21D;63735;44.730;37.818;2023-04-07T09:14:39;14.48;62.53
75155;HTU21D;63735;44.730;37.818;2023-04-07T09:17:05;14.36;62.85
75155;HTU21D;63735;44.730;37.818;2023-04-07T09:19:32;14.29;62.97
75155;HTU21D;63735;44.730;37.818;2023-04-07T09:21:58;14.25;63.08
75155;HTU21D;63735;44.730;37.818;2023-04-07T09:24:26;14.18;63.25
75155;HTU21D;63735;44.730;37.818;2023-04-07T09:27:18;14.13;63.59
75155;HTU21D;63735;44.730;37.818;2023-04-07T09:29:46;14.09;63.68
75155;HTU21D;63735;44.730;37.818;2023-04-07T09:32:33;13.98;63.82
75155;HTU21D;63735;44.730;37.818;2023-04-07T09:35:01;13.88;64.05
75155;HTU21D;63735;44.730;37.818;2023-04-07T09:37:26;13.81;64.20
75155;HTU21D;63735;44.730;37.818;2023-04-07T09:39:52;13.76;64.34
75155;HTU21D;63735;44.730;37.818;2023-04-07T09:42:19;13.76;64.55
75155;HTU21D;63735;44.730;37.818;2023-04-07T09:44:45;13.81;64.47
75155;HTU21D;63735;44.730;37.818;2023-04-07T09:47:11;13.86;64.43
75155;HTU21D;63735;44.730;37.818;2023-04-07T09:49:52;13.96;64.50
75155;HTU21D;63735;44.730;37.818;2023-04-07T09:52:20;14.08;64.24
75155;HTU21D;63735;44.730;37.818;2023-04-07T09:54:47;14.24;64.00
75155;HTU21D;63735;44.730;37.818;2023-04-07T09:57:13;14.54;63.82
75155;HTU21D;63735;44.730;37.818;2023-04-07T09:59:42;15.06;63.23
75155;HTU21D;63735;44.730;37.818;2023-04-07T10:02:09;15.63;62.32
75155;HTU21D;63735;44.730;37.818;2023-04-07T10:04:36;16.64;60.73
75155;HTU21D;63735;44.730;37.818;2023-04-07T10:07:03;17.33;59.08
75155;HTU21D;63735;44.730;37.818;2023-04-07T10:09:30;18.14;57.45
75155;HTU21D;63735;44.730;37.818;2023-04-07T10:11:58;18.77;55.85
75155;HTU21D;63735;44.730;37.818;2023-04-07T10:14:29;19.13;54.45
75155;HTU21D;63735;44.730;37.818;2023-04-07T10:16:57;19.45;53.65
75155;HTU21D;63735;44.730;37.818;2023-04-07T10:19:24;19.65;53.07
75155;HTU21D;63735;44.730;37.818;2023-04-07T10:21:52;19.63;52.04
75155;HTU21D;63735;44.730;37.818;2023-04-07T10:26:53;18.85;52.17
75155;HTU21D;63735;44.730;37.818;2023-04-07T10:29:22;18.33;53.10
75155;HTU21D;63735;44.730;37.818;2023-04-07T10:31:50;17.99;54.17
75155;HTU21D;63735;44.730;37.818;2023-04-07T10:37:11;17.55;55.21
75155;HTU21D;63735;44.730;37.818;2023-04-07T10:39:39;17.38;55.61
75155;HTU21D;63735;44.730;37.818;2023-04-07T10:42:05;17.18;56.00
75155;HTU21D;63735;44.730;37.818;2023-04-07T10:47:04;15.67;58.52
75155;HTU21D;63735;44.730;37.818;2023-04-07T10:49:34;15.16;59.55
75155;HTU21D;63735;44.730;37.818;2023-04-07T10:54:39;14.00;61.92
75155;HTU21D;63735;44.730;37.818;2023-04-07T10:59:41;13.46;63.30
75155;HTU21D;63735;44.730;37.818;2023-04-07T11:04:42;13.36;64.10
75155;HTU21D;63735;44.730;37.818;2023-04-07T11:07:08;13.21;64.43
75155;HTU21D;63735;44.730;37.818;2023-04-07T11:09:34;13.02;65.11
75155;HTU21D;63735;44.730;37.818;2023-04-07T11:12:00;12.91;65.75
75155;HTU21D;63735;44.730;37.818;2023-04-07T11:14:28;12.87;65.83
75155;HTU21D;63735;44.730;37.818;2023-04-07T11:16:55;12.81;66.31
75155;HTU21D;63735;44.730;37.818;2023-04-07T11:19:21;12.65;66.65
75155;HTU21D;63735;44.730;37.818;2023-04-07T11:21:47;12.40;67.45
75155;HTU21D;63735;44.730;37.818;2023-04-07T11:24:34;12.21;68.38
75155;HTU21D;63735;44.730;37.818;2023-04-07T11:27:03;12.17;68.29
75155;HTU21D;63735;44.730;37.818;2023-04-07T11:29:33;12.16;68.52
75155;HTU21D;63735;44.730;37.818;2023-04-07T11:32:01;12.10;68.94
75155;HTU21D;63735;44.730;37.818;2023-04-07T11:34:36;12.06;69.09
75155;HTU21D;63735;44.730;37.818;2023-04-07T11:37:22;12.02;69.17
75155;HTU21D;63735;44.730;37.818;2023-04-07T11:42:34;11.94;69.65
75155;HTU21D;63735;44.730;37.818;2023-04-07T11:45:01;11.93;69.55
75155;HTU21D;63735;44.730;37.818;2023-04-07T11:47:37;11.89;69.95
75155;HTU21D;63735;44.730;37.818;2023-04-07T11:50:04;11.85;69.97
75155;HTU21D;63735;44.730;37.818;2023-04-07T11:52:42;11.73;70.16
75155;HTU21D;63735;44.730;37.818;2023-04-07T11:55:22;11.70;70.27
75155;HTU21D;63735;44.730;37.818;2023-04-07T11:57:49;11.69;70.23
75155;HTU21D;63735;44.730;37.818;2023-04-07T12:00:16;11.70;70.33
75155;HTU21D;63735;44.730;37.818;2023-04-07T12:02:43;11.67;70.55
75155;HTU21D;63735;44.730;37.818;2023-04-07T12:05:09;11.64;70.60
75155;HTU21D;63735;44.730;37.818;2023-04-07T12:07:36;11.62;70.72
75155;HTU21D;63735;44.730;37.818;2023-04-07T12:10:22;11.55;71.00
75155;HTU21D;63735;44.730;37.818;2023-04-07T12:12:50;11.57;71.07
75155;HTU21D;63735;44.730;37.818;2023-04-07T12:15:16;11.58;70.96
75155;HTU21D;63735;44.730;37.818;2023-04-07T12:17:47;11.57;71.04
75155;HTU21D;63735;44.730;37.818;2023-04-07T12:20:14;11.56;71.12
75155;HTU21D;63735;44.730;37.818;2023-04-07T12:22:40;11.58;71.00
75155;HTU21D;63735;44.730;37.818;2023-04-07T12:25:07;11.56;71.10
75155;HTU21D;63735;44.730;37.818;2023-04-07T12:27:33;11.54;71.14
75155;HTU21D;63735;44.730;37.818;2023-04-07T12:29:59;11.55;71.18
75155;HTU21D;63735;44.730;37.818;2023-04-07T12:32:24;11.64;71.26
75155;HTU21D;63735;44.730;37.818;2023-04-07T12:34:50;11.67;71.22
75155;HTU21D;63735;44.730;37.818;2023-04-07T12:37:17;11.64;71.27
75155;HTU21D;63735;44.730;37.818;2023-04-07T12:39:42;11.68;71.17
75155;HTU21D;63735;44.730;37.818;2023-04-07T12:42:08;11.68;71.06
75155;HTU21D;63735;44.730;37.818;2023-04-07T12:44:38;11.62;71.23
75155;HTU21D;63735;44.730;37.818;2023-04-07T12:47:04;11.58;71.67
75155;HTU21D;63735;44.730;37.818;2023-04-07T12:49:30;11.54;71.77
75155;HTU21D;63735;44.730;37.818;2023-04-07T12:51:56;11.59;71.55
75155;HTU21D;63735;44.730;37.818;2023-04-07T12:54:22;11.58;71.60
75155;HTU21D;63735;44.730;37.818;2023-04-07T12:56:48;11.61;71.71
75155;HTU21D;63735;44.730;37.818;2023-04-07T12:59:15;11.73;71.58
75155;HTU21D;63735;44.730;37.818;2023-04-07T13:01:41;11.84;71.47
75155;HTU21D;63735;44.730;37.818;2023-04-07T13:04:07;11.92;71.35
75155;HTU21D;63735;44.730;37.818;2023-04-07T13:06:33;11.96;71.27
75155;HTU21D;63735;44.730;37.818;2023-04-07T13:08:59;11.92;71.33
75155;HTU21D;63735;44.730;37.818;2023-04-07T13:11:25;11.86;71.52
75155;HTU21D;63735;44.730;37.818;2023-04-07T13:13:52;11.83;71.62
75155;HTU21D;63735;44.730;37.818;2023-04-07T13:16:18;11.78;71.74
75155;HTU21D;63735;44.730;37.818;2023-04-07T13:18:44;11.78;71.78
75155;HTU21D;63735;44.730;37.818;2023-04-07T13:21:09;11.85;71.66
75155;HTU21D;63735;44.730;37.818;2023-04-07T13:23:35;11.94;71.50
75155;HTU21D;63735;44.730;37.818;2023-04-07T13:26:01;11.99;71.38
75155;HTU21D;63735;44.730;37.818;2023-04-07T13:28:27;11.91;71.59
75155;HTU21D;63735;44.730;37.818;2023-04-07T13:30:53;11.82;71.82
75155;HTU21D;63735;44.730;37.818;2023-04-07T13:33:20;11.76;71.93
75155;HTU21D;63735;44.730;37.818;2023-04-07T13:35:46;11.78;71.83
75155;HTU21D;63735;44.730;37.818;2023-04-07T13:38:11;11.77;71.93
75155;HTU21D;63735;44.730;37.818;2023-04-07T13:40:38;11.76;71.88
75155;HTU21D;63735;44.730;37.818;2023-04-07T13:43:04;11.72;72.01
75155;HTU21D;63735;44.730;37.818;2023-04-07T13:45:30;11.70;72.13
75155;HTU21D;63735;44.730;37.818;2023-04-07T13:47:57;11.75;72.05
75155;HTU21D;63735;44.730;37.818;2023-04-07T13:50:24;11.66;72.08
75155;HTU21D;63735;44.730;37.818;2023-04-07T13:52:49;11.61;72.28
75155;HTU21D;63735;44.730;37.818;2023-04-07T13:55:16;11.64;72.35
75155;HTU21D;63735;44.730;37.818;2023-04-07T13:57:45;11.68;72.34
75155;HTU21D;63735;44.730;37.818;2023-04-07T14:00:11;11.75;72.28
75155;HTU21D;63735;44.730;37.818;2023-04-07T14:02:38;11.79;72.22
75155;HTU21D;63735;44.730;37.818;2023-04-07T14:05:05;11.84;72.22
75155;HTU21D;63735;44.730;37.818;2023-04-07T14:07:31;11.88;72.07
75155;HTU21D;63735;44.730;37.818;2023-04-07T14:09:56;11.91;71.92
75155;HTU21D;63735;44.730;37.818;2023-04-07T14:12:23;11.88;71.88
75155;HTU21D;63735;44.730;37.818;2023-04-07T14:14:49;11.87;71.80
75155;HTU21D;63735;44.730;37.818;2023-04-07T14:17:17;11.87;71.87
75155;HTU21D;63735;44.730;37.818;2023-04-07T14:19:43;11.87;71.90
75155;HTU21D;63735;44.730;37.818;2023-04-07T14:22:09;11.84;71.97
75155;HTU21D;63735;44.730;37.818;2023-04-07T14:24:35;11.82;71.93
75155;HTU21D;63735;44.730;37.818;2023-04-07T14:27:01;11.81;72.22
75155;HTU21D;63735;44.730;37.818;2023-04-07T14:29:28;11.88;72.31
75155;HTU21D;63735;44.730;37.818;2023-04-07T14:31:54;11.98;72.22
75155;HTU21D;63735;44.730;37.818;2023-04-07T14:34:20;12.03;72.20
75155;HTU21D;63735;44.730;37.818;2023-04-07T14:36:56;12.07;72.22
75155;HTU21D;63735;44.730;37.818;2023-04-07T14:39:23;12.11;72.14
75155;HTU21D;63735;44.730;37.818;2023-04-07T14:41:51;12.14;72.16
75155;HTU21D;63735;44.730;37.818;2023-04-07T14:44:17;12.18;72.09
75155;HTU21D;63735;44.730;37.818;2023-04-07T14:46:43;12.21;72.07
75155;HTU21D;63735;44.730;37.818;2023-04-07T14:49:09;12.22;72.09
75155;HTU21D;63735;44.730;37.818;2023-04-07T14:51:35;12.19;72.10
75155;HTU21D;63735;44.730;37.818;2023-04-07T14:54:01;12.19;72.11
75155;HTU21D;63735;44.730;37.818;2023-04-07T14:56:27;12.15;72.10
75155;HTU21D;63735;44.730;37.818;2023-04-07T14:58:53;12.14;72.19
75155;HTU21D;63735;44.730;37.818;2023-04-07T15:01:19;12.13;72.12
75155;HTU21D;63735;44.730;37.818;2023-04-07T15:03:45;12.06;72.16
75155;HTU21D;63735;44.730;37.818;2023-04-07T15:06:12;12.02;72.27
75155;HTU21D;63735;44.730;37.818;2023-04-07T15:08:39;11.96;72.38
75155;HTU21D;63735;44.730;37.818;2023-04-07T15:11:06;11.88;72.41
75155;HTU21D;63735;44.730;37.818;2023-04-07T15:13:32;11.82;72.61
75155;HTU21D;63735;44.730;37.818;2023-04-07T15:16:06;11.76;72.68
75155;HTU21D;63735;44.730;37.818;2023-04-07T15:18:32;11.75;72.83
75155;HTU21D;63735;44.730;37.818;2023-04-07T15:20:58;11.77;72.83
75155;HTU21D;63735;44.730;37.818;2023-04-07T15:23:24;11.61;72.83
75155;HTU21D;63735;44.730;37.818;2023-04-07T15:25:50;11.51;73.12
75155;HTU21D;63735;44.730;37.818;2023-04-07T15:28:21;11.44;73.19
75155;HTU21D;63735;44.730;37.818;2023-04-07T15:30:47;11.40;73.31
75155;HTU21D;63735;44.730;37.818;2023-04-07T15:33:13;11.39;73.46